Time;durP1;ratioP1;P1;durP2;ratioP2;P2;SDS_P1;SDS_P2;PMS_P1;PMS_P2;Temp;Humidity;BMP_temperature;BMP_pressure;BME280_temperature;BME280_humidity;BME280_pressure;Samples;Min_cycle;Max_cycle;Signal;HPM_P1;HPM_P2
2023/08/23 00:02:25;;;;;;;1.77;0.60;;;16.40;99.90;;;;;;5078939;28;20505;-71
2023/08/23 00:04:50;;;;;;;1.10;0.57;;;16.40;99.90;;;;;;5076804;28;20140;-71
2023/08/23 00:07:16;;;;;;;2.22;0.98;;;16.40;99.90;;;;;;5078696;28;20041;-72
2023/08/23 00:09:42;;;;;;;1.83;0.77;;;16.40;99.90;;;;;;5081297;28;20453;-71
2023/08/23 00:12:07;;;;;;;1.65;0.63;;;16.40;99.90;;;;;;5079655;28;20447;-72
2023/08/23 00:14:33;;;;;;;3.45;1.02;;;16.40;99.90;;;;;;5055355;28;20032;-71
2023/08/23 00:16:59;;;;;;;2.00;0.85;;;16.30;99.90;;;;;;5077188;28;20063;-72
2023/08/23 00:19:24;;;;;;;1.83;0.70;;;16.30;99.90;;;;;;5078193;28;20052;-71
2023/08/23 00:21:50;;;;;;;2.55;0.80;;;16.30;99.90;;;;;;5078410;28;20036;-72
2023/08/23 00:24:15;;;;;;;2.63;0.75;;;16.20;99.90;;;;;;5072718;28;20070;-71
2023/08/23 00:26:41;;;;;;;1.00;0.50;;;16.20;99.90;;;;;;5075846;28;20040;-71
2023/08/23 00:29:06;;;;;;;1.75;0.55;;;16.20;99.90;;;;;;5079597;28;20080;-71
2023/08/23 00:31:32;;;;;;;0.95;0.40;;;16.20;99.90;;;;;;5074044;28;20078;-71
2023/08/23 00:33:58;;;;;;;1.48;0.60;;;16.10;99.90;;;;;;5076044;28;20047;-71
2023/08/23 00:36:23;;;;;;;1.48;0.70;;;16.10;99.90;;;;;;5077733;28;20071;-72
2023/08/23 00:38:49;;;;;;;2.33;0.73;;;16.10;99.90;;;;;;5074617;28;20028;-71
2023/08/23 00:41:15;;;;;;;2.20;0.90;;;16.00;99.90;;;;;;5082620;28;20545;-71
2023/08/23 00:43:41;;;;;;;2.90;1.13;;;16.00;99.90;;;;;;5067452;28;20051;-71
2023/08/23 00:46:07;;;;;;;2.85;1.13;;;16.00;99.90;;;;;;5084871;28;20036;-71
2023/08/23 00:48:33;;;;;;;3.60;1.10;;;16.10;99.90;;;;;;5071941;28;20403;-71
2023/08/23 00:50:59;;;;;;;3.03;1.38;;;16.00;99.90;;;;;;5079694;28;20040;-71
2023/08/23 00:53:25;;;;;;;3.80;1.00;;;16.10;99.90;;;;;;5077524;28;20111;-72
2023/08/23 00:55:51;;;;;;;3.28;1.05;;;16.10;99.90;;;;;;5078895;28;20116;-71
2023/08/23 00:58:17;;;;;;;3.47;1.40;;;16.10;99.90;;;;;;5072057;28;20417;-72
2023/08/23 01:00:44;;;;;;;2.00;1.00;;;16.10;99.90;;;;;;5074675;28;20028;-71
2023/08/23 01:03:10;;;;;;;5.55;1.30;;;16.00;99.90;;;;;;5070735;28;20562;-71
2023/08/23 01:06:05;;;;;;;2.97;1.23;;;16.00;99.90;;;;;;5055258;28;20060;-72
2023/08/23 01:08:42;;;;;;;3.27;1.00;;;15.90;99.90;;;;;;5077834;28;20036;-72
2023/08/23 01:11:22;;;;;;;2.15;1.05;;;15.90;99.90;;;;;;5072012;28;20040;-72
2023/08/23 01:13:50;;;;;;;2.28;1.00;;;15.90;99.90;;;;;;5078949;28;20089;-71
2023/08/23 01:16:19;;;;;;;3.22;1.10;;;16.00;99.90;;;;;;5057841;28;20486;-71
2023/08/23 01:18:45;;;;;;;5.13;1.58;;;16.00;99.90;;;;;;5077700;28;20066;-71
2023/08/23 01:21:14;;;;;;;4.38;1.30;;;16.00;99.90;;;;;;5070337;28;20112;-71
2023/08/23 01:23:41;;;;;;;3.83;1.52;;;16.00;99.90;;;;;;5077226;28;20474;-71
2023/08/23 01:26:07;;;;;;;3.15;1.40;;;15.90;99.90;;;;;;5073073;28;20721;-72
2023/08/23 01:28:32;;;;;;;5.10;1.05;;;15.90;99.90;;;;;;5104824;27;20541;-71
2023/08/23 01:31:00;;;;;;;3.97;1.58;;;15.90;99.90;;;;;;5081813;28;20040;-71
2023/08/23 01:33:35;;;;;;;4.70;1.48;;;15.80;99.90;;;;;;5076769;28;20055;-72
2023/08/23 01:36:16;;;;;;;6.30;1.70;;;15.80;99.90;;;;;;5079042;28;20028;-71
2023/08/23 01:38:41;;;;;;;4.40;2.00;;;15.80;99.90;;;;;;5105130;27;20235;-71
2023/08/23 01:41:07;;;;;;;3.13;1.20;;;15.80;99.90;;;;;;5108417;27;20197;-71
2023/08/23 01:43:33;;;;;;;2.97;1.50;;;15.80;99.90;;;;;;5077550;28;20036;-72
2023/08/23 01:45:58;;;;;;;3.00;1.42;;;15.80;99.90;;;;;;5075355;28;20032;-71
2023/08/23 01:48:24;;;;;;;3.03;1.35;;;15.80;99.90;;;;;;5078484;28;20028;-71
2023/08/23 01:50:51;;;;;;;5.03;1.70;;;15.80;99.90;;;;;;5081488;28;20048;-71
2023/08/23 01:53:16;;;;;;;2.75;1.42;;;15.70;99.90;;;;;;5072623;28;20354;-72
2023/08/23 01:55:42;;;;;;;4.63;2.03;;;15.70;99.90;;;;;;5075745;28;20494;-72
2023/08/23 01:58:07;;;;;;;4.20;1.90;;;15.70;99.90;;;;;;5069159;28;20123;-71
2023/08/23 02:00:33;;;;;;;4.63;1.80;;;15.70;99.90;;;;;;5077364;28;20078;-73
2023/08/23 02:02:58;;;;;;;3.60;1.75;;;15.60;99.90;;;;;;5056126;28;20448;-71
2023/08/23 02:05:24;;;;;;;5.72;2.28;;;15.70;99.90;;;;;;5076761;28;20051;-71
2023/08/23 02:07:50;;;;;;;5.50;2.47;;;15.70;99.90;;;;;;5079201;28;20048;-71
2023/08/23 02:10:15;;;;;;;4.82;2.20;;;15.70;99.90;;;;;;5076813;28;20040;-71
2023/08/23 02:12:42;;;;;;;6.43;2.83;;;15.60;99.90;;;;;;5065890;28;20032;-72
2023/08/23 02:15:08;;;;;;;5.20;2.25;;;15.60;99.90;;;;;;5055852;28;20063;-71
2023/08/23 02:17:33;;;;;;;4.57;2.00;;;15.60;99.90;;;;;;5076692;28;20062;-71
2023/08/23 02:19:59;;;;;;;4.05;1.83;;;15.60;99.90;;;;;;5077474;28;20468;-71
2023/08/23 02:22:24;;;;;;;5.93;2.40;;;15.60;99.90;;;;;;5076055;28;20036;-71
2023/08/23 02:24:50;;;;;;;4.47;1.63;;;15.70;99.90;;;;;;5073427;28;20073;-71
2023/08/23 02:27:15;;;;;;;3.75;1.92;;;15.70;99.90;;;;;;5076058;28;20110;-71
2023/08/23 02:29:41;;;;;;;4.18;1.65;;;15.70;99.90;;;;;;5080970;28;20077;-71
2023/08/23 02:32:07;;;;;;;6.70;1.92;;;15.60;99.90;;;;;;5076563;28;20047;-71
2023/08/23 02:34:32;;;;;;;4.78;2.20;;;15.60;99.90;;;;;;5056357;28;20075;-71
2023/08/23 02:36:58;;;;;;;5.68;1.90;;;15.60;99.90;;;;;;5079781;28;20390;-72
2023/08/23 02:39:34;;;;;;;4.78;2.03;;;15.50;99.90;;;;;;5050875;28;20047;-71
2023/08/23 02:41:59;;;;;;;2.92;1.63;;;15.50;99.90;;;;;;5074928;28;20209;-71
2023/08/23 02:44:25;;;;;;;3.78;2.10;;;15.40;99.90;;;;;;5075488;28;20248;-71
2023/08/23 02:46:51;;;;;;;5.68;2.10;;;15.40;99.90;;;;;;5079795;28;20045;-71
2023/08/23 02:49:16;;;;;;;3.28;1.67;;;15.40;99.90;;;;;;5076507;28;20047;-71
2023/08/23 02:51:42;;;;;;;2.95;1.58;;;15.40;99.90;;;;;;5075842;28;20032;-72
2023/08/23 02:54:08;;;;;;;4.38;1.35;;;15.40;99.90;;;;;;5090153;28;20047;-71
2023/08/23 02:56:33;;;;;;;3.85;1.67;;;15.40;99.90;;;;;;5076600;28;20160;-71
2023/08/23 02:58:59;;;;;;;3.85;1.60;;;15.40;99.90;;;;;;5073060;28;20036;-72
2023/08/23 03:01:24;;;;;;;3.35;1.70;;;15.40;99.90;;;;;;5078904;28;20036;-71
2023/08/23 03:03:50;;;;;;;2.67;1.65;;;15.40;99.90;;;;;;5077429;28;20036;-72
2023/08/23 03:06:15;;;;;;;5.47;1.92;;;15.50;99.90;;;;;;5082686;28;20040;-71
2023/08/23 03:08:41;;;;;;;3.97;1.80;;;15.50;99.90;;;;;;5076058;28;20131;-71
2023/08/23 03:11:07;;;;;;;3.20;1.63;;;15.50;99.90;;;;;;5074013;28;20509;-71
2023/08/23 03:13:34;;;;;;;6.53;1.90;;;15.50;99.90;;;;;;5080017;28;20043;-71
2023/08/23 03:16:00;;;;;;;5.03;2.47;;;15.50;99.90;;;;;;5076607;28;20123;-72
2023/08/23 03:18:26;;;;;;;4.43;2.55;;;15.50;99.90;;;;;;5108042;27;20394;-71
2023/08/23 03:20:52;;;;;;;5.88;2.60;;;15.50;99.90;;;;;;5092519;28;20032;-71
2023/08/23 03:23:19;;;;;;;4.82;2.67;;;15.50;99.90;;;;;;5070968;28;20549;-71
2023/08/23 03:25:45;;;;;;;6.82;2.60;;;15.50;99.90;;;;;;5075353;28;20097;-71
2023/08/23 03:28:12;;;;;;;4.53;2.50;;;15.50;99.90;;;;;;5108879;27;20056;-72
2023/08/23 03:30:38;;;;;;;5.35;2.15;;;15.50;99.90;;;;;;5080763;28;20066;-72
2023/08/23 03:33:05;;;;;;;3.83;2.15;;;15.60;99.90;;;;;;5078599;28;20043;-71
2023/08/23 03:35:31;;;;;;;5.05;2.50;;;15.60;99.90;;;;;;5077703;28;20498;-72
2023/08/23 03:37:56;;;;;;;4.05;2.17;;;15.60;99.90;;;;;;5076152;28;20486;-71
2023/08/23 03:40:22;;;;;;;6.43;2.50;;;15.60;99.90;;;;;;5077990;28;20039;-71
2023/08/23 03:42:48;;;;;;;5.00;2.60;;;15.60;99.90;;;;;;5109653;27;20071;-72
2023/08/23 03:45:13;;;;;;;6.95;2.10;;;15.60;99.90;;;;;;5072245;28;20478;-71
2023/08/23 03:47:39;;;;;;;4.28;2.13;;;15.60;99.90;;;;;;5056164;28;20525;-71
2023/08/23 03:50:05;;;;;;;5.90;2.30;;;15.60;99.90;;;;;;5088265;28;20036;-72
2023/08/23 03:52:31;;;;;;;4.30;2.42;;;15.60;99.90;;;;;;5078944;28;20124;-72
2023/08/23 03:54:56;;;;;;;4.80;2.20;;;15.60;99.90;;;;;;5073059;28;20119;-71
2023/08/23 03:57:22;;;;;;;4.93;2.17;;;15.60;99.90;;;;;;5079891;28;20047;-71
2023/08/23 03:59:48;;;;;;;5.00;2.40;;;15.60;99.90;;;;;;5080439;28;20024;-71
2023/08/23 04:02:13;;;;;;;5.05;2.47;;;15.60;99.90;;;;;;5076694;28;20040;-71
2023/08/23 04:04:39;;;;;;;6.15;2.70;;;15.70;99.90;;;;;;5068662;28;20036;-72
2023/08/23 04:07:07;;;;;;;4.38;2.15;;;15.70;99.90;;;;;;5075329;28;20032;-72
2023/08/23 04:09:32;;;;;;;4.95;2.33;;;15.70;99.90;;;;;;5073977;28;20044;-71
2023/08/23 04:11:58;;;;;;;5.00;2.40;;;15.70;99.90;;;;;;5076597;28;20044;-72
2023/08/23 04:14:24;;;;;;;4.32;2.35;;;15.70;99.90;;;;;;5054871;28;20441;-71
2023/08/23 04:16:49;;;;;;;5.10;2.30;;;15.70;99.90;;;;;;5082395;28;20024;-72
2023/08/23 04:19:15;;;;;;;6.70;2.25;;;15.60;99.90;;;;;;5082015;28;20497;-71
2023/08/23 04:21:40;;;;;;;5.15;2.28;;;15.60;99.90;;;;;;5071066;28;20056;-72
2023/08/23 04:24:06;;;;;;;6.10;2.40;;;15.60;99.90;;;;;;5076950;28;20043;-72
2023/08/23 04:26:32;;;;;;;4.93;2.47;;;15.60;99.90;;;;;;5068972;28;20049;-71
2023/08/23 04:28:57;;;;;;;4.72;2.67;;;15.60;99.90;;;;;;5072948;28;20083;-72
2023/08/23 04:31:23;;;;;;;3.67;2.25;;;15.60;99.90;;;;;;5070074;28;20079;-72
2023/08/23 04:33:48;;;;;;;4.88;2.50;;;15.60;99.90;;;;;;5076506;28;20048;-72
2023/08/23 04:36:14;;;;;;;4.20;2.50;;;15.60;99.90;;;;;;5054938;28;20383;-72
2023/08/23 04:38:40;;;;;;;4.57;2.35;;;15.60;99.90;;;;;;5108271;27;21482;-72
2023/08/23 04:41:05;;;;;;;5.30;2.55;;;15.60;99.90;;;;;;5075472;28;20040;-72
2023/08/23 04:43:31;;;;;;;5.22;2.47;;;15.60;99.90;;;;;;5083603;27;20041;-72
2023/08/23 04:45:58;;;;;;;5.15;2.42;;;15.60;99.90;;;;;;5075967;28;20028;-72
2023/08/23 04:48:26;;;;;;;4.85;2.75;;;15.70;99.90;;;;;;5052909;28;20123;-72
2023/08/23 04:50:53;;;;;;;5.38;2.90;;;15.70;99.90;;;;;;5072262;28;20048;-72
2023/08/23 04:53:19;;;;;;;6.47;2.97;;;15.70;99.90;;;;;;5073923;28;20465;-72
2023/08/23 04:55:45;;;;;;;6.60;2.88;;;15.70;99.90;;;;;;5074811;28;20044;-72
2023/08/23 04:58:10;;;;;;;6.00;2.72;;;15.70;99.90;;;;;;5076041;28;20055;-72
2023/08/23 05:00:36;;;;;;;5.35;2.97;;;15.70;99.90;;;;;;5074766;28;20039;-72
2023/08/23 05:03:02;;;;;;;5.85;2.97;;;15.70;99.90;;;;;;5096378;28;20044;-72
2023/08/23 05:05:28;;;;;;;6.68;3.00;;;15.70;99.90;;;;;;5069643;28;20367;-72
2023/08/23 05:07:54;;;;;;;6.00;2.97;;;15.70;99.90;;;;;;5051293;28;20046;-72
2023/08/23 05:10:19;;;;;;;6.03;2.92;;;15.70;99.90;;;;;;5076836;28;20089;-74
2023/08/23 05:12:46;;;;;;;5.10;3.03;;;15.70;99.90;;;;;;5075799;28;20436;-72
2023/08/23 05:15:11;;;;;;;6.53;3.60;;;15.70;99.90;;;;;;5072454;28;20036;-72
2023/08/23 05:17:37;;;;;;;8.77;3.25;;;15.70;99.90;;;;;;5070191;28;20043;-72
2023/08/23 05:20:04;;;;;;;6.68;3.17;;;15.70;99.90;;;;;;5075047;28;20115;-72
2023/08/23 05:22:29;;;;;;;6.70;3.67;;;15.80;99.90;;;;;;5068069;28;20249;-73
2023/08/23 05:24:55;;;;;;;5.97;3.10;;;15.80;99.90;;;;;;5075363;28;20498;-72
2023/08/23 05:27:20;;;;;;;6.07;3.50;;;15.80;99.90;;;;;;5071633;28;20074;-72
2023/08/23 05:29:46;;;;;;;8.55;4.15;;;15.90;99.90;;;;;;5063056;28;20074;-72
2023/08/23 05:32:12;;;;;;;7.22;3.53;;;15.90;99.90;;;;;;5048905;28;20048;-73
2023/08/23 05:34:40;;;;;;;7.85;4.20;;;15.90;99.90;;;;;;5074596;28;20032;-72
2023/08/23 05:37:06;;;;;;;7.25;3.70;;;16.00;99.90;;;;;;5058128;28;20032;-73
2023/08/23 05:39:32;;;;;;;7.60;3.72;;;16.00;99.90;;;;;;5079305;28;20031;-73
2023/08/23 05:41:57;;;;;;;8.43;3.95;;;16.00;99.90;;;;;;5078659;28;20066;-73
2023/08/23 05:44:23;;;;;;;7.20;3.75;;;16.00;99.90;;;;;;5063183;28;20565;-73
2023/08/23 05:46:48;;;;;;;9.00;4.60;;;16.00;99.90;;;;;;5074835;28;20103;-73
2023/08/23 05:49:14;;;;;;;11.02;4.18;;;16.10;99.90;;;;;;5078027;28;20410;-73
2023/08/23 05:51:39;;;;;;;7.90;3.95;;;16.10;99.90;;;;;;5077007;28;20071;-73
2023/08/23 05:54:06;;;;;;;8.30;4.05;;;16.10;99.90;;;;;;5071588;28;20045;-73
2023/08/23 05:56:31;;;;;;;7.95;4.07;;;16.10;99.90;;;;;;5099698;28;20578;-72
2023/08/23 05:58:57;;;;;;;9.65;3.95;;;16.10;99.90;;;;;;5078229;28;20029;-72
2023/08/23 06:01:23;;;;;;;8.63;4.00;;;16.10;99.90;;;;;;5071079;28;20074;-72
2023/08/23 06:03:49;;;;;;;8.18;4.20;;;16.10;99.90;;;;;;5077146;28;20245;-72
2023/08/23 06:06:15;;;;;;;7.57;4.07;;;16.10;99.90;;;;;;5075916;28;20051;-72
2023/08/23 06:08:40;;;;;;;7.80;3.75;;;16.10;99.90;;;;;;5073176;28;20036;-70
2023/08/23 06:11:06;;;;;;;9.50;4.40;;;16.10;99.90;;;;;;5082791;28;20043;-70
2023/08/23 06:13:32;;;;;;;8.20;4.07;;;16.10;99.90;;;;;;5076069;28;20032;-73
2023/08/23 06:15:57;;;;;;;11.18;4.75;;;16.10;99.90;;;;;;5079423;28;20045;-72
2023/08/23 06:18:23;;;;;;;10.60;4.95;;;16.20;99.90;;;;;;5072833;28;20056;-72
2023/08/23 06:20:49;;;;;;;9.32;4.80;;;16.20;99.90;;;;;;5073614;28;20183;-72
2023/08/23 06:23:15;;;;;;;10.63;4.82;;;16.20;99.90;;;;;;5075305;28;20110;-72
2023/08/23 06:25:41;;;;;;;9.80;5.15;;;16.20;99.90;;;;;;5078465;28;20404;-72
2023/08/23 06:28:08;;;;;;;12.07;5.20;;;16.20;99.90;;;;;;5044199;28;20448;-72
2023/08/23 06:30:36;;;;;;;10.38;4.57;;;16.30;99.90;;;;;;5053537;28;20051;-72
2023/08/23 06:33:02;;;;;;;10.25;4.80;;;16.30;99.90;;;;;;5076056;28;20519;-72
2023/08/23 06:35:29;;;;;;;10.70;5.13;;;16.40;99.90;;;;;;5081699;28;20040;-72
2023/08/23 06:37:54;;;;;;;11.85;5.05;;;16.40;99.90;;;;;;5080868;28;20502;-72
2023/08/23 06:40:20;;;;;;;10.60;4.43;;;16.40;99.90;;;;;;5078606;28;20078;-72
2023/08/23 06:42:45;;;;;;;10.98;4.80;;;16.50;99.90;;;;;;5083258;28;20032;-72
2023/08/23 06:45:11;;;;;;;11.98;5.38;;;16.50;99.90;;;;;;5082170;28;20438;-73
2023/08/23 06:47:37;;;;;;;13.95;5.55;;;16.50;99.90;;;;;;5081867;28;20585;-72
2023/08/23 06:50:03;;;;;;;13.23;5.85;;;16.60;99.90;;;;;;5069480;28;20052;-72
2023/08/23 06:52:29;;;;;;;9.60;4.75;;;16.60;99.90;;;;;;5078524;28;20036;-72
2023/08/23 06:54:55;;;;;;;12.27;4.95;;;16.70;99.90;;;;;;5084977;28;20036;-73
2023/08/23 06:57:28;;;;;;;11.85;4.80;;;16.70;99.90;;;;;;5086180;28;20585;-73
2023/08/23 06:59:55;;;;;;;8.80;4.80;;;16.80;99.90;;;;;;5091302;28;20078;-73
2023/08/23 07:02:21;;;;;;;11.23;5.32;;;16.90;99.90;;;;;;5070684;28;20035;-73
2023/08/23 07:04:46;;;;;;;11.23;4.28;;;16.90;99.90;;;;;;5066659;28;20407;-72
2023/08/23 07:07:12;;;;;;;11.85;4.78;;;17.10;99.90;;;;;;5083939;28;20039;-73
2023/08/23 07:09:37;;;;;;;11.38;5.07;;;17.10;99.90;;;;;;5082964;28;20119;-73
2023/08/23 07:12:03;;;;;;;9.55;4.55;;;17.10;99.90;;;;;;5084341;28;20047;-73
2023/08/23 07:14:29;;;;;;;9.43;4.88;;;17.20;99.90;;;;;;5088385;28;20040;-73
2023/08/23 07:16:54;;;;;;;10.48;4.90;;;17.20;99.90;;;;;;5090711;28;20085;-73
2023/08/23 07:19:20;;;;;;;10.02;4.75;;;17.30;99.90;;;;;;5084200;28;20050;-72
2023/08/23 07:21:45;;;;;;;10.88;5.03;;;17.30;99.90;;;;;;5089289;28;20028;-72
2023/08/23 07:24:11;;;;;;;9.57;4.45;;;17.40;99.90;;;;;;5082578;28;20048;-72
2023/08/23 07:26:36;;;;;;;11.85;4.82;;;17.40;99.90;;;;;;5083678;28;20079;-72
2023/08/23 07:29:02;;;;;;;11.20;5.10;;;17.50;99.90;;;;;;5084045;28;20044;-74
2023/08/23 07:31:27;;;;;;;10.70;5.18;;;17.50;99.90;;;;;;5080849;28;20039;-73
2023/08/23 07:33:53;;;;;;;12.07;4.60;;;17.50;99.90;;;;;;5084621;28;20105;-72
2023/08/23 07:36:18;;;;;;;10.85;5.00;;;17.50;99.90;;;;;;5081978;28;20044;-72
2023/08/23 07:38:44;;;;;;;8.75;4.60;;;17.50;99.90;;;;;;5106919;27;20047;-72
2023/08/23 07:41:10;;;;;;;9.23;4.45;;;17.60;99.90;;;;;;5083765;28;20032;-73
2023/08/23 07:43:37;;;;;;;10.38;4.93;;;17.60;99.90;;;;;;5079059;28;20402;-73
2023/08/23 07:46:07;;;;;;;10.07;4.18;;;17.60;99.90;;;;;;5116623;27;20490;-73
2023/08/23 07:48:32;;;;;;;8.68;3.90;;;17.70;99.90;;;;;;5085225;28;20563;-72
2023/08/23 07:51:01;;;;;;;9.65;3.80;;;17.80;99.90;;;;;;5082465;28;20036;-73
2023/08/23 07:53:28;;;;;;;8.07;3.80;;;17.80;99.90;;;;;;5081618;28;20212;-73
2023/08/23 07:55:54;;;;;;;6.35;3.40;;;17.80;99.90;;;;;;5063109;28;20074;-73
2023/08/23 07:58:20;;;;;;;6.18;3.33;;;17.90;99.90;;;;;;5085720;28;20044;-73
2023/08/23 08:00:45;;;;;;;3.78;2.60;;;17.90;99.90;;;;;;5118035;27;20039;-72
2023/08/23 08:03:11;;;;;;;7.47;3.35;;;18.00;99.90;;;;;;5089759;28;20032;-73
2023/08/23 08:05:37;;;;;;;6.90;3.35;;;18.00;99.90;;;;;;5084315;28;20043;-73
2023/08/23 08:08:05;;;;;;;4.50;2.53;;;18.00;99.90;;;;;;5084909;28;20040;-72
2023/08/23 08:10:30;;;;;;;6.20;3.10;;;18.10;99.90;;;;;;5082500;28;20514;-72
2023/08/23 08:12:58;;;;;;;7.25;3.47;;;18.10;99.90;;;;;;5073316;28;20490;-73
2023/08/23 08:15:25;;;;;;;5.95;2.60;;;18.20;99.90;;;;;;5070310;28;20343;-73
2023/08/23 08:17:51;;;;;;;5.00;3.08;;;18.30;99.90;;;;;;5083996;28;20470;-72
2023/08/23 08:20:20;;;;;;;6.47;2.83;;;18.30;99.90;;;;;;5089947;28;20057;-72
2023/08/23 08:22:46;;;;;;;5.53;2.78;;;18.40;99.90;;;;;;5083003;28;20033;-72
2023/08/23 08:25:12;;;;;;;7.97;3.35;;;18.40;99.90;;;;;;5084632;28;20079;-72
2023/08/23 08:27:38;;;;;;;5.22;2.92;;;18.50;99.90;;;;;;5083219;28;20087;-72
2023/08/23 08:30:05;;;;;;;5.65;2.80;;;18.60;99.90;;;;;;5087651;28;20075;-72
2023/08/23 08:32:30;;;;;;;6.28;2.58;;;18.50;99.90;;;;;;5077525;28;20481;-73
2023/08/23 08:34:56;;;;;;;6.07;3.00;;;18.60;99.90;;;;;;5087847;28;20036;-73
2023/08/23 08:37:22;;;;;;;6.35;2.47;;;18.70;99.90;;;;;;5085410;28;20085;-73
2023/08/23 08:39:49;;;;;;;4.15;2.30;;;18.70;99.90;;;;;;5068530;28;20032;-73
2023/08/23 08:42:15;;;;;;;5.57;3.15;;;18.80;99.90;;;;;;5080988;28;20064;-73
2023/08/23 08:44:42;;;;;;;7.05;2.50;;;18.80;99.90;;;;;;5081426;28;20118;-72
2023/08/23 08:47:07;;;;;;;6.13;2.83;;;18.90;99.90;;;;;;5078364;28;20064;-72
2023/08/23 08:49:33;;;;;;;5.57;2.55;;;19.00;99.90;;;;;;5104996;27;20059;-72
2023/08/23 08:52:02;;;;;;;5.22;2.30;;;19.10;99.90;;;;;;5073510;28;20550;-72
2023/08/23 08:54:29;;;;;;;4.90;2.75;;;19.10;99.90;;;;;;5089545;27;20048;-72
2023/08/23 08:56:55;;;;;;;4.82;2.70;;;19.20;99.90;;;;;;5074045;28;20033;-71
2023/08/23 08:59:21;;;;;;;4.57;2.17;;;19.20;99.90;;;;;;5069705;28;20036;-73
2023/08/23 09:01:49;;;;;;;4.55;2.05;;;19.30;99.90;;;;;;5075381;28;20093;-73
2023/08/23 09:04:15;;;;;;;5.60;2.50;;;19.40;99.90;;;;;;5076696;28;20047;-75
2023/08/23 09:06:41;;;;;;;4.68;2.03;;;19.40;99.90;;;;;;5069067;28;20044;-73
2023/08/23 09:09:07;;;;;;;2.70;1.33;;;19.50;99.90;;;;;;5071748;28;20047;-73
2023/08/23 09:11:34;;;;;;;3.55;1.15;;;19.50;99.90;;;;;;5072148;28;20063;-73
2023/08/23 09:14:12;;;;;;;2.83;1.25;;;19.60;99.90;;;;;;5073411;28;20040;-73
2023/08/23 09:16:38;;;;;;;2.42;1.10;;;19.70;99.90;;;;;;5071250;28;20500;-73
2023/08/23 09:19:07;;;;;;;3.38;1.48;;;19.70;99.90;;;;;;5081084;28;20167;-73
2023/08/23 09:21:33;;;;;;;4.13;1.90;;;19.70;99.90;;;;;;5074020;28;20051;-73
2023/08/23 09:23:59;;;;;;;3.55;1.02;;;19.80;99.90;;;;;;5076577;28;20028;-73
2023/08/23 09:26:25;;;;;;;2.70;1.30;;;19.90;99.90;;;;;;5078337;28;20455;-73
2023/08/23 09:28:51;;;;;;;3.13;1.95;;;19.90;99.90;;;;;;5073016;28;20044;-73
2023/08/23 09:31:16;;;;;;;3.00;1.30;;;19.90;99.90;;;;;;5068114;28;20123;-73
2023/08/23 09:33:42;;;;;;;4.30;1.23;;;20.00;99.90;;;;;;5074017;28;20035;-73
2023/08/23 09:36:08;;;;;;;2.10;1.10;;;20.10;99.90;;;;;;5087552;28;20033;-73
2023/08/23 09:38:33;;;;;;;2.30;1.13;;;20.10;99.90;;;;;;5053061;28;20039;-73
2023/08/23 09:41:00;;;;;;;2.40;1.20;;;20.10;99.90;;;;;;5073144;28;20036;-73
2023/08/23 09:43:30;;;;;;;1.65;0.90;;;20.20;99.90;;;;;;5079578;28;20226;-73
2023/08/23 09:45:56;;;;;;;1.92;1.00;;;20.20;99.90;;;;;;5080383;28;20074;-73
2023/08/23 09:48:26;;;;;;;5.20;1.05;;;20.20;99.90;;;;;;5072110;28;20045;-73
2023/08/23 09:50:53;;;;;;;3.70;0.90;;;20.30;99.90;;;;;;5075513;28;20047;-73
2023/08/23 09:53:25;;;;;;;3.05;1.15;;;20.30;99.90;;;;;;5076672;28;20036;-73
2023/08/23 09:55:51;;;;;;;2.50;1.08;;;20.40;99.90;;;;;;5077477;28;20036;-73
2023/08/23 09:58:17;;;;;;;3.33;1.10;;;20.40;99.90;;;;;;5074633;28;20040;-73
2023/08/23 10:00:47;;;;;;;3.40;1.20;;;20.40;99.90;;;;;;5082694;28;20036;-73
2023/08/23 10:03:13;;;;;;;4.28;1.60;;;20.40;99.90;;;;;;5071727;28;20040;-73
2023/08/23 10:05:40;;;;;;;3.33;1.27;;;20.50;99.90;;;;;;5050960;28;20043;-73
2023/08/23 10:08:07;;;;;;;2.58;1.13;;;20.50;99.90;;;;;;5076771;28;20036;-73
2023/08/23 10:10:33;;;;;;;2.67;1.30;;;20.60;99.90;;;;;;5075134;28;20040;-72
2023/08/23 10:13:04;;;;;;;3.65;1.38;;;20.70;99.90;;;;;;5078005;28;20043;-73
2023/08/23 10:15:37;;;;;;;5.28;1.90;;;20.70;99.90;;;;;;5081192;28;20040;-73
2023/08/23 10:18:06;;;;;;;2.67;0.90;;;20.80;99.90;;;;;;5116085;27;20051;-73
2023/08/23 10:20:37;;;;;;;3.17;1.55;;;20.90;99.90;;;;;;5062593;28;20048;-73
2023/08/23 10:23:12;;;;;;;3.72;1.40;;;20.90;99.90;;;;;;5080721;28;20054;-73
2023/08/23 10:25:41;;;;;;;4.47;1.38;;;21.10;99.90;;;;;;5080577;28;20490;-73
2023/08/23 10:28:07;;;;;;;4.60;1.40;;;21.10;99.90;;;;;;5080609;28;20048;-73
2023/08/23 10:30:32;;;;;;;3.17;1.80;;;21.10;99.90;;;;;;5083455;28;20033;-73
2023/08/23 10:33:12;;;;;;;4.15;1.50;;;21.10;99.90;;;;;;5073540;28;20116;-75
2023/08/23 10:35:39;;;;;;;2.97;1.40;;;21.10;99.90;;;;;;5079825;28;20044;-74
2023/08/23 10:38:06;;;;;;;2.60;1.50;;;21.30;99.90;;;;;;5080815;28;20036;-73
2023/08/23 10:40:32;;;;;;;5.32;1.52;;;21.30;99.90;;;;;;5080719;28;20105;-73
2023/08/23 10:43:02;;;;;;;4.35;1.60;;;21.40;99.90;;;;;;5073591;28;20130;-72
2023/08/23 10:45:27;;;;;;;3.45;1.48;;;21.40;99.90;;;;;;5090418;28;20071;-73
2023/08/23 10:47:54;;;;;;;3.53;1.40;;;21.50;99.90;;;;;;5072891;28;20128;-73
2023/08/23 10:50:20;;;;;;;2.15;1.20;;;21.50;99.90;;;;;;5055463;28;20497;-73
2023/08/23 10:52:49;;;;;;;3.55;1.33;;;21.60;99.90;;;;;;5077554;28;20076;-73
2023/08/23 10:55:15;;;;;;;2.75;1.52;;;21.70;99.90;;;;;;5057069;28;20048;-73
2023/08/23 10:57:40;;;;;;;3.63;1.60;;;21.60;99.90;;;;;;5054323;28;20683;-73
2023/08/23 11:00:07;;;;;;;3.55;1.50;;;21.50;99.90;;;;;;5078592;28;20035;-73
2023/08/23 11:02:33;;;;;;;3.97;1.77;;;21.40;99.90;;;;;;5073438;28;20079;-73
2023/08/23 11:04:58;;;;;;;6.53;1.90;;;21.50;99.90;;;;;;5077247;28;20145;-73
2023/08/23 11:07:27;;;;;;;3.63;1.42;;;21.40;99.90;;;;;;5075496;28;20064;-73
2023/08/23 11:09:54;;;;;;;3.97;1.45;;;21.30;99.90;;;;;;5110463;27;20414;-73
2023/08/23 11:12:20;;;;;;;3.80;1.60;;;21.40;99.90;;;;;;5055823;28;20587;-73
2023/08/23 11:14:45;;;;;;;2.85;1.67;;;21.40;99.90;;;;;;5078740;28;20039;-73
2023/08/23 11:17:11;;;;;;;4.65;1.50;;;21.30;99.90;;;;;;5077212;28;20048;-72
2023/08/23 11:19:41;;;;;;;3.85;1.30;;;21.40;99.90;;;;;;5074498;28;20040;-73
2023/08/23 11:22:07;;;;;;;3.75;1.80;;;21.40;99.90;;;;;;5076062;28;20227;-73
2023/08/23 11:24:32;;;;;;;5.00;1.60;;;21.50;99.90;;;;;;5111963;27;20224;-73
2023/08/23 11:26:58;;;;;;;2.75;1.30;;;21.50;99.90;;;;;;5056762;28;20087;-73
2023/08/23 11:29:24;;;;;;;6.90;2.03;;;21.60;99.90;;;;;;5064122;28;20078;-73
2023/08/23 11:31:54;;;;;;;4.63;1.60;;;21.60;99.90;;;;;;5070950;28;20723;-73
2023/08/23 11:34:20;;;;;;;4.50;1.67;;;21.70;99.90;;;;;;5080376;28;20041;-73
2023/08/23 11:36:46;;;;;;;3.70;1.73;;;21.70;99.90;;;;;;5053952;28;20076;-73
2023/08/23 11:39:13;;;;;;;4.60;1.83;;;21.80;99.90;;;;;;5077478;28;20074;-73
2023/08/23 11:41:40;;;;;;;4.40;2.20;;;21.80;99.90;;;;;;5070852;28;20039;-73
2023/08/23 11:44:07;;;;;;;4.57;1.80;;;21.90;99.90;;;;;;5069107;28;20036;-73
2023/08/23 11:46:37;;;;;;;3.85;1.45;;;22.00;99.90;;;;;;5076838;28;20052;-72
2023/08/23 11:49:07;;;;;;;3.70;1.70;;;22.00;99.90;;;;;;5108314;27;20047;-73
2023/08/23 11:51:52;;;;;;;4.45;1.70;;;22.10;99.90;;;;;;5068283;28;21016;-73
2023/08/23 11:54:18;;;;;;;5.13;2.10;;;22.10;99.90;;;;;;5070904;28;20051;-73
2023/08/23 11:56:44;;;;;;;4.10;1.48;;;22.10;99.90;;;;;;5073312;28;20254;-72
2023/08/23 11:59:12;;;;;;;3.45;1.20;;;22.20;99.90;;;;;;5074301;28;20033;-73
2023/08/23 12:01:38;;;;;;;2.25;1.23;;;22.20;99.90;;;;;;5078569;28;20147;-72
2023/08/23 12:04:06;;;;;;;3.17;1.42;;;22.20;99.90;;;;;;5073562;28;20040;-73
2023/08/23 12:06:32;;;;;;;3.05;1.33;;;22.30;99.90;;;;;;5080561;28;20413;-73
2023/08/23 12:08:58;;;;;;;4.18;1.40;;;22.40;99.90;;;;;;5074344;28;20044;-73
2023/08/23 12:11:23;;;;;;;4.05;1.10;;;22.40;99.90;;;;;;5075519;28;20043;-73
2023/08/23 12:13:49;;;;;;;1.90;0.90;;;22.40;99.90;;;;;;5065898;28;20173;-73
2023/08/23 12:16:15;;;;;;;2.88;1.05;;;22.40;99.90;;;;;;5103875;27;20032;-72
2023/08/23 12:18:41;;;;;;;3.90;0.90;;;22.40;99.90;;;;;;5076157;28;20036;-73
2023/08/23 12:21:06;;;;;;;1.75;0.90;;;22.30;99.90;;;;;;5076644;28;20035;-73
2023/08/23 12:23:32;;;;;;;1.98;0.68;;;22.20;99.90;;;;;;5072582;28;20053;-72
2023/08/23 12:25:58;;;;;;;2.40;0.95;;;22.10;99.90;;;;;;5052894;28;20055;-73
2023/08/23 12:28:23;;;;;;;2.88;0.93;;;22.10;99.90;;;;;;5075246;28;20064;-73
2023/08/23 12:30:49;;;;;;;3.58;1.40;;;22.00;99.90;;;;;;5070766;28;20040;-73
2023/08/23 12:33:14;;;;;;;3.83;1.63;;;22.00;99.90;;;;;;5068158;28;20042;-72
2023/08/23 12:35:40;;;;;;;4.80;1.98;;;22.00;99.90;;;;;;5077171;28;20084;-73
2023/08/23 12:38:07;;;;;;;5.10;1.58;;;22.00;99.90;;;;;;5109562;27;20040;-72
2023/08/23 12:40:33;;;;;;;4.32;1.88;;;22.00;99.90;;;;;;5074737;28;20036;-73
2023/08/23 12:42:58;;;;;;;1.98;1.15;;;22.10;99.90;;;;;;5056184;28;20036;-72